Details for Olympic Air at LGRP




Go Back


Latest METAR
Local Time

LGRP 240750Z 26012KT CAVOK 25/19 Q1011 NOSIG

24/05/2018, 11:05:53

Description
Results
Olympic Air Logo
Number of Pilots based at LGRP
0 Pilots Based here
Number of Olympic Air Flights Departed from LGRP
0 Flights Departed
Number of Olympic Air Flights Arrived at LGRP
0 Flights Arrived
Number of Olympic Air Schedules Departing from LGRP
2 Schedules
Number of Olympic Air Schedules Arriving at LGRP
2 Schedules
Number of Olympic Air Schedules Departing from LGRP availible today
2 Schedules Today
Number of Olympic Air Schedules Arriving at LGRP availible today
2 Schedules Today
Average Landing Rate at LGRP
-138 fpm
Olympic Air Average Landing Rate at LGRP
0 fpm
Total Fuel Purchased at LGRP by Olympic Air
0.00 kgs / 0.00 lbs

Pilots Based at LGRP


Pilot ID
Pilot Name
Pilot Rank
No. of Flights
No. of Flying Hours
There are no pilots assigned to this hub!   Will you be the first?
Content